createdAt,value
2017-12-31T00:01:34.447Z,8.93
2017-12-31T00:04:08.801Z,9.52
2017-12-31T00:06:43.341Z,8.32
2017-12-31T00:09:17.719Z,8.35
2017-12-31T00:11:52.246Z,8.40
2017-12-31T00:14:26.775Z,6.50
2017-12-31T00:17:01.992Z,5.45
2017-12-31T00:19:36.465Z,4.30
2017-12-31T00:22:12.587Z,6.03
2017-12-31T00:24:47.024Z,9.93
2017-12-31T00:27:22.142Z,6.05
2017-12-31T00:29:56.630Z,7.78
2017-12-31T00:32:31.806Z,6.53
2017-12-31T00:35:06.324Z,6.60
2017-12-31T00:37:40.820Z,6.15
2017-12-31T00:40:15.284Z,5.03
2017-12-31T00:42:49.673Z,5.20
2017-12-31T00:45:24.102Z,4.90
2017-12-31T00:47:58.666Z,6.87
2017-12-31T00:50:32.990Z,4.85
2017-12-31T00:53:07.346Z,5.93
2017-12-31T00:55:41.802Z,7.12
2017-12-31T00:58:16.208Z,6.55
2017-12-31T01:00:50.771Z,10.60
2017-12-31T01:03:25.189Z,3.87
2017-12-31T01:05:59.549Z,6.72
2017-12-31T01:08:34.082Z,4.12
2017-12-31T01:11:08.533Z,8.00
2017-12-31T01:13:43.053Z,7.12
2017-12-31T01:16:17.378Z,6.72
2017-12-31T01:18:51.894Z,10.57
2017-12-31T01:21:26.501Z,1.80
2017-12-31T01:24:01.003Z,5.43
2017-12-31T01:26:36.208Z,11.48
2017-12-31T01:29:10.562Z,4.70
2017-12-31T01:31:45.084Z,5.70
2017-12-31T01:34:19.511Z,5.43
2017-12-31T01:36:54.055Z,7.93
2017-12-31T01:39:28.413Z,5.07
2017-12-31T01:42:02.912Z,7.57
2017-12-31T01:44:37.278Z,7.05
2017-12-31T01:47:11.647Z,7.75
2017-12-31T01:49:46.146Z,8.00
2017-12-31T01:52:20.555Z,7.22
2017-12-31T01:54:55.801Z,8.88
2017-12-31T01:57:30.380Z,5.43
2017-12-31T02:00:05.611Z,8.77
2017-12-31T02:02:40.127Z,5.32
2017-12-31T02:05:14.497Z,17.10
2017-12-31T02:07:48.998Z,7.85
2017-12-31T02:10:23.549Z,9.57
2017-12-31T02:12:58.087Z,7.05
2017-12-31T02:15:32.513Z,3.83
2017-12-31T02:18:07.066Z,9.15
2017-12-31T02:20:41.623Z,12.85
2017-12-31T02:23:16.083Z,10.02
2017-12-31T02:25:50.449Z,9.40
2017-12-31T02:28:24.823Z,14.90
2017-12-31T02:30:59.342Z,4.45
2017-12-31T02:33:34.601Z,9.77
2017-12-31T02:36:09.081Z,8.20
2017-12-31T02:38:43.504Z,8.85
2017-12-31T02:41:18.032Z,15.07
2017-12-31T02:43:52.575Z,16.95
2017-12-31T02:46:27.072Z,6.37
2017-12-31T02:49:01.485Z,26.40
2017-12-31T02:51:36.021Z,9.48
2017-12-31T02:54:10.311Z,12.88
2017-12-31T02:56:44.761Z,10.88
2017-12-31T02:59:19.157Z,1.85
2017-12-31T03:01:53.565Z,33.28
2017-12-31T03:04:28.198Z,18.60
2017-12-31T03:07:02.743Z,27.87
2017-12-31T03:09:37.330Z,23.08
2017-12-31T03:12:11.807Z,12.13
2017-12-31T03:14:46.248Z,22.58
2017-12-31T03:17:20.829Z,12.07
2017-12-31T03:19:55.328Z,22.40
2017-12-31T03:22:30.548Z,27.50
2017-12-31T03:25:04.944Z,35.70
2017-12-31T03:27:39.312Z,6.75
2017-12-31T03:30:13.693Z,18.25
2017-12-31T03:32:48.152Z,30.05
2017-12-31T03:35:22.681Z,26.25
2017-12-31T03:37:57.046Z,13.10
2017-12-31T03:40:31.626Z,30.42
2017-12-31T03:43:06.131Z,23.30
2017-12-31T03:45:40.485Z,29.80
2017-12-31T03:48:15.570Z,22.75
2017-12-31T03:50:50.017Z,35.58
2017-12-31T03:53:24.462Z,26.08
2017-12-31T03:55:58.798Z,30.17
2017-12-31T03:58:33.235Z,18.33
2017-12-31T04:01:07.666Z,25.67
2017-12-31T04:03:42.144Z,21.90
2017-12-31T04:06:16.625Z,25.67
2017-12-31T04:08:50.957Z,11.23
2017-12-31T04:11:25.481Z,20.23
2017-12-31T04:13:59.882Z,22.25
2017-12-31T04:16:34.253Z,10.23
2017-12-31T04:19:08.635Z,23.92
2017-12-31T04:21:43.118Z,16.80
2017-12-31T04:24:17.501Z,30.25
2017-12-31T04:26:51.974Z,18.98
2017-12-31T04:29:27.245Z,31.17
2017-12-31T04:32:02.437Z,26.40
2017-12-31T04:34:36.867Z,29.65
2017-12-31T04:37:11.363Z,27.95
2017-12-31T04:39:45.786Z,43.78
2017-12-31T04:42:20.241Z,28.55
2017-12-31T04:44:54.652Z,19.48
2017-12-31T04:47:29.175Z,21.08
2017-12-31T04:50:03.566Z,28.95
2017-12-31T04:52:38.129Z,22.17
2017-12-31T04:55:12.693Z,33.30
2017-12-31T04:57:47.284Z,22.08
2017-12-31T05:00:22.575Z,22.27
2017-12-31T05:02:57.109Z,24.33
2017-12-31T05:05:31.534Z,22.23
2017-12-31T05:08:06.046Z,25.70
2017-12-31T05:10:40.401Z,21.87
2017-12-31T05:13:14.782Z,46.60
2017-12-31T05:15:49.929Z,32.15
2017-12-31T05:18:26.090Z,24.50
2017-12-31T05:21:00.503Z,28.62
2017-12-31T05:23:34.925Z,38.33
2017-12-31T05:26:09.279Z,28.90
2017-12-31T05:28:43.667Z,25.08
2017-12-31T05:31:18.092Z,14.13
2017-12-31T05:33:52.530Z,15.55
2017-12-31T05:36:27.930Z,14.57
2017-12-31T05:39:02.485Z,20.12
2017-12-31T05:41:37.002Z,28.95
2017-12-31T05:44:11.526Z,19.27
2017-12-31T05:46:46.765Z,17.75
2017-12-31T05:49:21.153Z,25.85
2017-12-31T05:51:55.487Z,16.52
2017-12-31T05:54:29.978Z,14.23
2017-12-31T05:57:04.505Z,31.10
2017-12-31T05:59:39.738Z,23.73
2017-12-31T06:02:14.344Z,23.08
2017-12-31T06:04:48.709Z,19.00
2017-12-31T06:07:23.111Z,19.90
2017-12-31T06:09:57.432Z,17.65
2017-12-31T06:12:31.830Z,17.02
2017-12-31T06:15:06.274Z,14.30
2017-12-31T06:17:40.811Z,21.40
2017-12-31T06:20:15.297Z,17.90
2017-12-31T06:22:49.709Z,23.12
2017-12-31T06:25:24.176Z,22.00
2017-12-31T06:27:58.676Z,11.07
2017-12-31T06:30:33.223Z,25.25
2017-12-31T06:33:07.740Z,11.32
2017-12-31T06:35:42.255Z,16.45
2017-12-31T06:38:16.659Z,16.10
2017-12-31T06:40:51.211Z,25.73
2017-12-31T06:43:25.634Z,25.17
2017-12-31T06:46:00.737Z,17.20
2017-12-31T06:48:35.891Z,18.67
2017-12-31T06:51:10.244Z,16.05
2017-12-31T06:53:44.550Z,11.27
2017-12-31T06:56:19.064Z,17.50
2017-12-31T06:58:53.479Z,14.10
2017-12-31T07:01:27.943Z,11.10
2017-12-31T07:04:03.119Z,23.80
2017-12-31T07:06:37.646Z,19.12
2017-12-31T07:09:12.055Z,20.10
2017-12-31T07:11:46.549Z,16.00
2017-12-31T07:14:21.831Z,21.85
2017-12-31T07:16:56.280Z,21.40
2017-12-31T07:19:30.655Z,18.85
2017-12-31T07:22:04.992Z,17.85
2017-12-31T07:24:39.508Z,19.30
2017-12-31T07:27:14.639Z,10.20
2017-12-31T07:29:49.180Z,15.07
2017-12-31T07:32:23.725Z,16.50
2017-12-31T07:34:58.178Z,15.93
2017-12-31T07:37:32.598Z,11.50
2017-12-31T07:40:07.135Z,22.67
2017-12-31T07:42:41.647Z,12.48
2017-12-31T07:45:16.894Z,13.40
2017-12-31T07:47:51.271Z,16.58
2017-12-31T07:50:25.853Z,17.17
2017-12-31T07:53:00.315Z,17.30
2017-12-31T07:55:34.798Z,10.70
2017-12-31T07:58:09.961Z,12.23
2017-12-31T08:00:44.493Z,22.73
2017-12-31T08:03:18.990Z,16.55
2017-12-31T08:05:53.617Z,11.50
2017-12-31T08:08:28.108Z,24.10
2017-12-31T08:11:02.687Z,18.37
2017-12-31T08:13:37.205Z,9.70
2017-12-31T08:16:11.563Z,14.27
2017-12-31T08:18:46.118Z,9.95
2017-12-31T08:21:20.503Z,27.48
2017-12-31T08:23:54.878Z,23.33
2017-12-31T08:26:30.079Z,15.32
2017-12-31T08:29:04.613Z,11.12
2017-12-31T08:31:39.145Z,20.17
2017-12-31T08:34:13.518Z,15.82
2017-12-31T08:36:47.956Z,18.10
2017-12-31T08:39:22.466Z,18.12
2017-12-31T08:41:56.997Z,24.37
2017-12-31T08:44:31.520Z,16.33
2017-12-31T08:47:06.090Z,24.48
2017-12-31T08:49:40.701Z,24.17
2017-12-31T08:52:15.894Z,19.80
2017-12-31T08:54:50.302Z,20.70
2017-12-31T08:57:24.746Z,18.70
2017-12-31T08:59:59.262Z,23.30
2017-12-31T09:02:33.772Z,25.17
2017-12-31T09:05:09.053Z,17.08
2017-12-31T09:07:43.532Z,30.75
2017-12-31T09:10:17.839Z,24.42
2017-12-31T09:12:52.179Z,33.35
2017-12-31T09:15:26.707Z,28.50
2017-12-31T09:18:01.278Z,18.17
2017-12-31T09:20:35.749Z,31.27
2017-12-31T09:23:10.255Z,20.35
2017-12-31T09:25:44.624Z,27.87
2017-12-31T09:28:19.199Z,20.05
2017-12-31T09:30:53.612Z,21.55
2017-12-31T09:33:27.965Z,23.60
2017-12-31T09:36:02.467Z,24.37
2017-12-31T09:38:37.013Z,23.62
2017-12-31T09:41:11.315Z,22.50
2017-12-31T09:43:45.857Z,18.12
2017-12-31T09:46:20.409Z,74.97
2017-12-31T09:48:54.841Z,35.47
2017-12-31T09:51:29.332Z,27.40
2017-12-31T09:54:03.801Z,18.50
2017-12-31T09:56:38.159Z,20.35
2017-12-31T09:59:12.545Z,10.10
2017-12-31T10:01:46.953Z,12.10
2017-12-31T10:04:21.401Z,12.25
2017-12-31T10:06:55.899Z,13.80
2017-12-31T10:09:30.546Z,13.40
2017-12-31T10:12:05.059Z,14.52
2017-12-31T10:14:39.456Z,7.60
2017-12-31T10:17:13.839Z,11.27
2017-12-31T10:19:48.347Z,12.18
2017-12-31T10:22:22.892Z,14.77
2017-12-31T10:24:58.163Z,10.13
2017-12-31T10:27:32.610Z,17.35
2017-12-31T10:30:07.145Z,11.18
2017-12-31T10:32:41.631Z,9.45
2017-12-31T10:35:16.063Z,7.15
2017-12-31T10:37:50.594Z,7.07
2017-12-31T10:40:24.914Z,5.43
2017-12-31T10:42:59.416Z,4.70
2017-12-31T10:45:33.774Z,7.22
2017-12-31T10:48:08.219Z,6.53
2017-12-31T10:50:42.691Z,5.60
2017-12-31T10:53:17.200Z,7.75
2017-12-31T10:55:52.456Z,11.75
2017-12-31T10:58:26.890Z,11.20
2017-12-31T11:01:02.082Z,7.28
2017-12-31T11:03:36.394Z,6.93
2017-12-31T11:06:10.778Z,9.40
2017-12-31T11:08:45.259Z,6.20
2017-12-31T11:11:19.714Z,8.07
2017-12-31T11:13:54.099Z,7.60
2017-12-31T11:16:28.561Z,9.73
2017-12-31T11:19:03.833Z,7.68
2017-12-31T11:21:38.405Z,9.75
2017-12-31T11:24:12.817Z,4.55
2017-12-31T11:26:47.324Z,5.35
2017-12-31T11:29:21.874Z,4.95
2017-12-31T11:31:56.366Z,7.97
2017-12-31T11:34:30.719Z,4.50
2017-12-31T11:37:05.283Z,4.78
2017-12-31T11:39:39.727Z,10.20
2017-12-31T11:42:14.179Z,8.20
2017-12-31T11:44:48.562Z,14.07
2017-12-31T11:47:23.052Z,7.50
2017-12-31T11:49:57.500Z,14.02
2017-12-31T11:52:31.898Z,42.42
2017-12-31T11:55:06.421Z,5.05
2017-12-31T11:57:40.855Z,5.47
2017-12-31T12:00:15.970Z,6.80
2017-12-31T12:02:50.396Z,6.93
2017-12-31T12:05:24.790Z,13.65
2017-12-31T12:07:59.334Z,8.35
2017-12-31T12:10:33.774Z,7.55
2017-12-31T12:13:08.260Z,7.70
2017-12-31T12:15:42.776Z,7.65
2017-12-31T12:18:17.254Z,4.10
2017-12-31T12:20:51.631Z,8.07
2017-12-31T12:23:26.055Z,6.30
2017-12-31T12:26:01.318Z,6.60
2017-12-31T12:28:35.721Z,4.60
2017-12-31T12:31:10.240Z,4.40
2017-12-31T12:33:44.729Z,4.87
2017-12-31T12:36:19.295Z,6.12
2017-12-31T12:38:53.767Z,6.10
2017-12-31T12:41:29.054Z,5.32
2017-12-31T12:44:03.542Z,4.53
2017-12-31T12:46:38.098Z,6.53
2017-12-31T12:49:12.583Z,6.97
2017-12-31T12:51:46.905Z,8.88
2017-12-31T12:54:21.351Z,5.40
2017-12-31T12:56:55.817Z,8.00
2017-12-31T12:59:31.634Z,4.47
2017-12-31T13:02:06.187Z,6.75
2017-12-31T13:04:40.560Z,4.57
2017-12-31T13:07:15.089Z,12.43
2017-12-31T13:09:49.563Z,4.50
2017-12-31T13:12:24.049Z,2.12
2017-12-31T13:14:58.414Z,6.62
2017-12-31T13:17:32.890Z,2.40
2017-12-31T13:20:07.406Z,5.90
2017-12-31T13:22:41.803Z,4.82
2017-12-31T13:25:16.332Z,3.55
2017-12-31T13:27:51.601Z,4.28
2017-12-31T13:30:26.121Z,5.85
2017-12-31T13:33:00.585Z,5.82
2017-12-31T13:35:34.909Z,7.93
2017-12-31T13:38:09.229Z,6.07
2017-12-31T13:40:43.800Z,6.80
2017-12-31T13:43:18.293Z,4.45
2017-12-31T13:45:53.643Z,7.15
2017-12-31T13:48:28.118Z,3.87
2017-12-31T13:51:02.459Z,2.92
2017-12-31T13:53:36.783Z,3.72
2017-12-31T13:56:11.161Z,8.60
2017-12-31T13:58:45.590Z,3.50
2017-12-31T14:01:19.965Z,5.97
2017-12-31T14:03:54.598Z,4.60
2017-12-31T14:06:29.017Z,4.57
2017-12-31T14:09:03.562Z,7.62
2017-12-31T14:11:38.033Z,9.77
2017-12-31T14:14:13.350Z,7.78
2017-12-31T14:16:47.874Z,7.97
2017-12-31T14:19:22.417Z,8.15
2017-12-31T14:21:56.831Z,5.18
2017-12-31T14:24:31.389Z,6.68
2017-12-31T14:27:05.922Z,8.60
2017-12-31T14:29:40.431Z,5.68
2017-12-31T14:32:14.829Z,5.40
2017-12-31T14:34:49.288Z,1.95
2017-12-31T14:37:23.775Z,3.25
2017-12-31T14:39:58.320Z,2.30
2017-12-31T14:42:32.811Z,2.20
2017-12-31T14:45:07.493Z,6.45
2017-12-31T14:47:41.867Z,2.90
2017-12-31T14:50:16.253Z,7.05
2017-12-31T14:52:50.721Z,2.47
2017-12-31T14:55:25.238Z,5.72
2017-12-31T14:57:59.765Z,6.12
2017-12-31T15:00:34.194Z,5.22
2017-12-31T15:03:08.584Z,7.45
2017-12-31T15:05:43.812Z,5.55
2017-12-31T15:08:18.247Z,4.80
2017-12-31T15:10:52.776Z,3.33
2017-12-31T15:13:27.283Z,3.00
2017-12-31T15:16:01.641Z,13.02
2017-12-31T15:18:36.134Z,9.90
2017-12-31T15:21:10.647Z,8.18
2017-12-31T15:23:45.161Z,3.00
2017-12-31T15:26:19.515Z,7.97
2017-12-31T15:28:53.990Z,2.72
2017-12-31T15:31:28.562Z,2.35
2017-12-31T15:34:03.064Z,3.67
2017-12-31T15:36:37.565Z,5.45
2017-12-31T15:39:12.707Z,8.23
2017-12-31T15:41:47.145Z,4.57
2017-12-31T15:44:21.685Z,2.20
2017-12-31T15:46:56.163Z,4.45
2017-12-31T15:49:30.537Z,1.08
2017-12-31T15:52:04.906Z,2.58
2017-12-31T15:54:39.428Z,2.35
2017-12-31T15:57:14.664Z,5.18
2017-12-31T15:59:49.168Z,6.18
2017-12-31T16:02:23.610Z,2.00
2017-12-31T16:04:58.986Z,16.87
2017-12-31T16:07:33.395Z,24.83
2017-12-31T16:10:07.903Z,9.90
2017-12-31T16:12:42.274Z,21.25
2017-12-31T16:15:16.731Z,9.13
2017-12-31T16:17:51.263Z,8.88
2017-12-31T16:20:25.771Z,4.37
2017-12-31T16:23:00.986Z,6.62
2017-12-31T16:25:35.408Z,5.07
2017-12-31T16:28:10.561Z,10.23
2017-12-31T16:30:45.101Z,13.55
2017-12-31T16:33:19.418Z,8.52
2017-12-31T16:35:53.931Z,7.20
2017-12-31T16:38:28.415Z,8.43
2017-12-31T16:41:02.904Z,5.20
2017-12-31T16:43:37.379Z,11.02
2017-12-31T16:46:11.867Z,11.70
2017-12-31T16:48:46.236Z,9.73
2017-12-31T16:51:20.627Z,7.28
2017-12-31T16:53:55.177Z,15.77
2017-12-31T16:56:29.715Z,10.50
2017-12-31T16:59:05.032Z,7.50
2017-12-31T17:01:39.541Z,12.68
2017-12-31T17:04:14.023Z,16.40
2017-12-31T17:06:48.578Z,18.15
2017-12-31T17:09:23.000Z,25.83
2017-12-31T17:11:57.411Z,36.42
2017-12-31T17:14:31.795Z,16.02
2017-12-31T17:17:06.225Z,26.12
2017-12-31T17:19:40.687Z,26.50
2017-12-31T17:22:15.294Z,16.23
2017-12-31T17:24:49.855Z,23.62
2017-12-31T17:27:24.392Z,18.80
2017-12-31T17:29:58.887Z,25.75
2017-12-31T17:32:33.296Z,26.52
2017-12-31T17:35:07.827Z,20.40
2017-12-31T17:37:42.362Z,44.30
2017-12-31T17:40:17.877Z,43.22
2017-12-31T17:42:52.332Z,39.72
2017-12-31T17:45:26.855Z,30.75
2017-12-31T17:48:01.378Z,17.55
2017-12-31T17:50:35.721Z,20.83
2017-12-31T17:53:10.147Z,26.02
2017-12-31T17:55:44.692Z,27.00
2017-12-31T17:58:19.848Z,25.58
2017-12-31T18:00:54.383Z,20.77
2017-12-31T18:03:28.903Z,15.07
2017-12-31T18:06:03.403Z,15.75
2017-12-31T18:08:37.884Z,25.90
2017-12-31T18:11:12.382Z,29.95
2017-12-31T18:13:46.873Z,24.12
2017-12-31T18:16:21.387Z,31.02
2017-12-31T18:18:56.054Z,13.73
2017-12-31T18:21:30.450Z,9.30
2017-12-31T18:24:05.780Z,12.45
2017-12-31T18:26:40.192Z,11.38
2017-12-31T18:29:14.635Z,18.37
2017-12-31T18:31:48.979Z,18.52
2017-12-31T18:34:23.459Z,12.20
2017-12-31T18:36:58.705Z,16.75
2017-12-31T18:39:33.159Z,11.82
2017-12-31T18:42:07.637Z,22.45
2017-12-31T18:44:42.141Z,66.00
2017-12-31T18:47:16.592Z,105.45
2017-12-31T18:49:51.879Z,96.63
2017-12-31T18:52:27.194Z,54.63
2017-12-31T18:55:01.571Z,16.30
2017-12-31T18:57:36.148Z,21.25
2017-12-31T19:00:10.651Z,21.50
2017-12-31T19:02:45.161Z,13.82
2017-12-31T19:05:19.589Z,19.62
2017-12-31T19:07:54.072Z,25.35
2017-12-31T19:10:28.544Z,8.90
2017-12-31T19:13:03.852Z,24.20
2017-12-31T19:15:38.395Z,31.23
2017-12-31T19:18:12.932Z,15.45
2017-12-31T19:20:47.462Z,23.30
2017-12-31T19:23:21.997Z,26.58
2017-12-31T19:25:56.576Z,14.02
2017-12-31T19:28:31.108Z,14.80
2017-12-31T19:31:05.551Z,27.77
2017-12-31T19:33:40.725Z,13.88
2017-12-31T19:36:15.237Z,20.42
2017-12-31T19:38:51.328Z,15.18
2017-12-31T19:41:26.552Z,35.92
2017-12-31T19:44:00.919Z,31.65
2017-12-31T19:46:35.274Z,37.60
2017-12-31T19:49:09.608Z,21.55
2017-12-31T19:51:44.048Z,26.05
2017-12-31T19:54:18.571Z,30.00
2017-12-31T19:56:53.081Z,34.15
2017-12-31T19:59:27.497Z,31.27
2017-12-31T20:02:02.018Z,35.50
2017-12-31T20:04:37.373Z,26.92
2017-12-31T20:07:11.836Z,30.45
2017-12-31T20:09:46.407Z,30.75
2017-12-31T20:12:20.948Z,22.10
2017-12-31T20:14:56.294Z,26.52
2017-12-31T20:17:30.824Z,30.83
2017-12-31T20:20:05.941Z,37.70
2017-12-31T20:22:41.091Z,28.15
2017-12-31T20:25:16.594Z,33.42
2017-12-31T20:27:51.760Z,39.97
2017-12-31T20:30:26.151Z,34.47
2017-12-31T20:33:00.601Z,25.00
2017-12-31T20:35:35.798Z,31.23
2017-12-31T20:38:10.109Z,53.97
2017-12-31T20:40:45.370Z,45.30
2017-12-31T20:43:19.786Z,43.47
2017-12-31T20:45:54.229Z,27.33
2017-12-31T20:48:28.595Z,56.88
2017-12-31T20:51:03.150Z,32.53
2017-12-31T20:53:37.711Z,70.55
2017-12-31T20:56:12.218Z,36.30
2017-12-31T20:58:46.587Z,44.70
2017-12-31T21:01:20.913Z,30.90
2017-12-31T21:03:56.174Z,48.15
2017-12-31T21:06:30.592Z,291.25
2017-12-31T21:09:04.991Z,32.15
2017-12-31T21:11:39.458Z,31.92
2017-12-31T21:14:13.956Z,28.80
2017-12-31T21:16:48.485Z,30.88
2017-12-31T21:19:23.175Z,44.17
2017-12-31T21:21:58.414Z,25.83
2017-12-31T21:24:32.842Z,24.15
2017-12-31T21:27:07.390Z,32.08
2017-12-31T21:29:41.786Z,35.10
2017-12-31T21:32:16.273Z,52.55
2017-12-31T21:34:50.689Z,40.75
2017-12-31T21:37:25.156Z,28.45
2017-12-31T21:39:59.691Z,20.45
2017-12-31T21:42:34.068Z,23.00
2017-12-31T21:45:08.532Z,18.60
2017-12-31T21:47:43.070Z,22.37
2017-12-31T21:50:17.534Z,21.20
2017-12-31T21:52:51.960Z,26.85
2017-12-31T21:55:26.444Z,26.42
2017-12-31T21:58:01.701Z,52.90
2017-12-31T22:00:36.168Z,35.72
2017-12-31T22:03:11.392Z,22.48
2017-12-31T22:05:45.800Z,32.15
2017-12-31T22:08:20.121Z,28.90
2017-12-31T22:10:54.491Z,30.50
2017-12-31T22:13:28.977Z,22.92
2017-12-31T22:16:03.561Z,23.10
2017-12-31T22:18:38.102Z,19.90
2017-12-31T22:21:12.519Z,24.37
2017-12-31T22:23:47.040Z,22.77
2017-12-31T22:26:21.585Z,21.15
2017-12-31T22:28:56.033Z,32.70
2017-12-31T22:31:30.578Z,33.47
2017-12-31T22:34:05.647Z,21.98
2017-12-31T22:36:40.807Z,15.77
2017-12-31T22:39:16.017Z,25.25
2017-12-31T22:41:50.601Z,26.45
2017-12-31T22:44:25.088Z,23.92
2017-12-31T22:46:59.583Z,17.90
2017-12-31T22:49:33.993Z,41.70
2017-12-31T22:52:08.456Z,23.77
2017-12-31T22:54:43.042Z,33.60
2017-12-31T22:57:18.242Z,32.58
2017-12-31T22:59:52.615Z,36.65
2017-12-31T23:02:27.012Z,32.15
2017-12-31T23:05:01.561Z,56.85
2017-12-31T23:07:36.168Z,216.45
2017-12-31T23:10:10.537Z,697.83
2017-12-31T23:12:45.153Z,390.55
2017-12-31T23:15:19.634Z,352.60
2017-12-31T23:17:54.061Z,356.55
2017-12-31T23:20:28.456Z,332.83
2017-12-31T23:23:02.941Z,135.18
2017-12-31T23:25:37.450Z,142.00
2017-12-31T23:28:12.767Z,195.18
2017-12-31T23:30:47.218Z,93.62
2017-12-31T23:33:21.589Z,126.97
2017-12-31T23:35:56.064Z,92.85
2017-12-31T23:38:30.570Z,146.57
2017-12-31T23:41:05.086Z,77.10
2017-12-31T23:43:39.741Z,61.95
2017-12-31T23:46:14.923Z,90.00
2017-12-31T23:48:49.383Z,63.58
2017-12-31T23:51:23.926Z,54.03
2017-12-31T23:53:58.373Z,54.65
2017-12-31T23:56:32.777Z,57.65
2017-12-31T23:59:08.004Z,43.25
